createdAt,value
2023-07-25T00:00:30.758Z,97.19
2023-07-25T00:01:02.282Z,96.60
2023-07-25T00:01:33.954Z,96.79
2023-07-25T00:02:05.764Z,97.03
2023-07-25T00:02:37.405Z,96.83
2023-07-25T00:03:09.075Z,97.12
2023-07-25T00:03:40.614Z,96.60
2023-07-25T00:04:12.084Z,96.92
2023-07-25T00:04:43.885Z,97.23
2023-07-25T00:05:15.324Z,97.39
2023-07-25T00:05:46.744Z,96.87
2023-07-25T00:06:18.761Z,96.82
2023-07-25T00:06:50.180Z,96.77
2023-07-25T00:07:21.672Z,97.14
2023-07-25T00:07:53.148Z,97.69
2023-07-25T00:08:24.565Z,97.65
2023-07-25T00:08:56.010Z,97.50
2023-07-25T00:09:27.518Z,97.35
2023-07-25T00:09:59.457Z,96.51
2023-07-25T00:10:33.246Z,96.92
2023-07-25T00:11:04.888Z,97.16
2023-07-25T00:11:36.694Z,96.67
2023-07-25T00:12:08.196Z,96.81
2023-07-25T00:12:40.263Z,97.49
2023-07-25T00:13:11.845Z,97.72
2023-07-25T00:13:43.311Z,97.89
2023-07-25T00:14:14.816Z,97.49
2023-07-25T00:14:46.218Z,97.78
2023-07-25T00:15:17.710Z,97.11
2023-07-25T00:15:51.230Z,97.49
2023-07-25T00:16:22.786Z,97.82
2023-07-25T00:16:54.187Z,97.27
2023-07-25T00:17:25.749Z,97.52
2023-07-25T00:17:58.053Z,97.82
2023-07-25T00:18:29.578Z,97.99
2023-07-25T00:19:01.014Z,97.55
2023-07-25T00:19:32.512Z,97.35
2023-07-25T00:20:05.876Z,97.45
2023-07-25T00:20:37.319Z,97.43
2023-07-25T00:21:08.757Z,97.71
2023-07-25T00:21:40.200Z,97.24
2023-07-25T00:22:11.843Z,97.46
2023-07-25T00:22:43.269Z,97.48
2023-07-25T00:23:15.030Z,97.71
2023-07-25T00:23:46.482Z,97.92
2023-07-25T00:24:18.124Z,98.03
2023-07-25T00:24:49.846Z,98.04
2023-07-25T00:25:21.548Z,97.91
2023-07-25T00:25:53.081Z,98.08
2023-07-25T00:26:24.520Z,97.76
2023-07-25T00:26:55.931Z,97.18
2023-07-25T00:27:27.480Z,97.88
2023-07-25T00:27:59.262Z,97.84
2023-07-25T00:28:30.714Z,97.67
2023-07-25T00:29:02.176Z,97.84
2023-07-25T00:29:33.601Z,97.65
2023-07-25T00:30:06.482Z,97.95
2023-07-25T00:30:37.917Z,98.04
2023-07-25T00:31:09.442Z,97.18
2023-07-25T00:31:40.910Z,97.92
2023-07-25T00:32:12.491Z,97.50
2023-07-25T00:32:44.089Z,98.01
2023-07-25T00:33:15.538Z,97.45
2023-07-25T00:33:47.038Z,98.07
2023-07-25T00:34:18.668Z,97.74
2023-07-25T00:34:53.161Z,96.96
2023-07-25T00:35:24.652Z,97.14
2023-07-25T00:35:56.084Z,97.00
2023-07-25T00:36:27.543Z,97.70
2023-07-25T00:36:58.971Z,97.63
2023-07-25T00:37:30.961Z,97.02
2023-07-25T00:38:05.390Z,97.28
2023-07-25T00:38:36.825Z,97.01
2023-07-25T00:39:08.226Z,97.67
2023-07-25T00:39:39.648Z,97.12
2023-07-25T00:40:11.609Z,97.31
2023-07-25T00:40:43.055Z,97.12
2023-07-25T00:41:14.626Z,96.75
2023-07-25T00:41:46.157Z,96.96
2023-07-25T00:42:17.747Z,96.92
2023-07-25T00:42:54.968Z,97.50
2023-07-25T00:43:26.550Z,97.34
2023-07-25T00:43:58.076Z,97.04
2023-07-25T00:44:29.633Z,96.91
2023-07-25T00:45:01.184Z,97.62
2023-07-25T00:45:32.819Z,97.57
2023-07-25T00:46:05.624Z,97.76
2023-07-25T00:46:37.155Z,97.08
2023-07-25T00:47:08.684Z,97.38
2023-07-25T00:47:40.168Z,97.18
2023-07-25T00:48:11.664Z,97.35
2023-07-25T00:48:44.960Z,97.30
2023-07-25T00:49:16.728Z,97.18
2023-07-25T00:49:48.711Z,97.18
2023-07-25T00:50:20.294Z,96.87
2023-07-25T00:50:52.219Z,97.17
2023-07-25T00:51:23.763Z,97.17
2023-07-25T00:51:55.788Z,96.79
2023-07-25T00:52:27.603Z,96.62
2023-07-25T00:53:00.310Z,97.08
2023-07-25T00:53:31.927Z,97.63
2023-07-25T00:54:03.607Z,97.23
2023-07-25T00:54:35.480Z,97.36
2023-07-25T00:55:07.948Z,97.32
2023-07-25T00:55:39.991Z,97.62
2023-07-25T00:56:12.754Z,97.84
2023-07-25T00:56:44.258Z,97.13
2023-07-25T00:57:17.938Z,97.80
2023-07-25T00:57:49.491Z,97.54
2023-07-25T00:58:20.964Z,97.60
2023-07-25T00:58:52.486Z,97.97
2023-07-25T00:59:23.909Z,97.57
2023-07-25T00:59:55.314Z,97.39
2023-07-25T01:00:26.794Z,97.45
2023-07-25T01:01:05.590Z,97.52
2023-07-25T01:01:37.843Z,97.78
2023-07-25T01:02:10.591Z,97.58
2023-07-25T01:02:42.243Z,98.10
2023-07-25T01:03:14.850Z,97.63
2023-07-25T01:03:46.428Z,98.09
2023-07-25T01:04:18.244Z,98.24
2023-07-25T01:04:49.762Z,97.79
2023-07-25T01:05:22.828Z,98.22
2023-07-25T01:05:54.944Z,98.29
2023-07-25T01:06:27.797Z,97.75
2023-07-25T01:07:00.831Z,97.98
2023-07-25T01:07:32.730Z,97.66
2023-07-25T01:08:04.412Z,97.93
2023-07-25T01:08:48.871Z,98.02
2023-07-25T01:09:43.636Z,97.75
2023-07-25T01:10:16.018Z,97.77
2023-07-25T01:10:47.502Z,97.80
2023-07-25T01:11:19.664Z,97.63
2023-07-25T01:11:51.099Z,97.61
2023-07-25T01:12:22.900Z,98.21
2023-07-25T01:12:54.338Z,97.84
2023-07-25T01:13:26.136Z,98.12
2023-07-25T01:13:57.814Z,97.71
2023-07-25T01:14:31.433Z,98.33
2023-07-25T01:15:03.249Z,98.26
2023-07-25T01:15:35.633Z,98.51
2023-07-25T01:16:10.491Z,98.51
2023-07-25T01:16:42.103Z,98.73
2023-07-25T01:17:16.591Z,98.95
2023-07-25T01:17:48.092Z,98.89
2023-07-25T01:18:20.258Z,98.60
2023-07-25T01:18:52.730Z,98.86
2023-07-25T01:19:29.777Z,98.46
2023-07-25T01:20:01.583Z,99.35
2023-07-25T01:20:35.698Z,99.30
2023-07-25T01:21:08.473Z,99.45
2023-07-25T01:21:39.985Z,99.25
2023-07-25T01:22:12.442Z,99.21
2023-07-25T01:22:46.360Z,98.96
2023-07-25T01:23:18.703Z,99.43
2023-07-25T01:23:51.075Z,99.52
2023-07-25T01:24:22.824Z,99.29
2023-07-25T01:24:56.165Z,99.65
2023-07-25T01:25:27.764Z,99.55
2023-07-25T01:25:59.340Z,99.30
2023-07-25T01:26:30.863Z,99.17
2023-07-25T01:27:03.092Z,99.06
2023-07-25T01:27:34.505Z,98.53
2023-07-25T01:28:06.461Z,98.71
2023-07-25T01:28:38.770Z,98.92
2023-07-25T01:29:10.247Z,99.65
2023-07-25T01:29:41.915Z,99.76
2023-07-25T01:30:13.381Z,99.65
2023-07-25T01:30:45.030Z,99.62
2023-07-25T01:31:16.505Z,99.33
2023-07-25T01:31:47.917Z,99.69
2023-07-25T01:32:19.407Z,100.00
2023-07-25T01:32:52.476Z,99.96
2023-07-25T01:33:24.435Z,99.91
2023-07-25T01:33:55.928Z,99.59
2023-07-25T01:34:27.415Z,99.61
2023-07-25T01:34:59.652Z,99.44
2023-07-25T01:35:31.116Z,99.61
2023-07-25T01:36:02.609Z,99.57
2023-07-25T01:36:34.054Z,99.88
2023-07-25T01:37:06.911Z,99.34
2023-07-25T01:37:38.387Z,99.30
2023-07-25T01:38:09.841Z,99.98
2023-07-25T01:38:41.259Z,99.66
2023-07-25T01:39:12.665Z,99.29
2023-07-25T01:39:45.040Z,99.27
2023-07-25T01:40:16.537Z,99.85
2023-07-25T01:40:48.211Z,99.19
2023-07-25T01:41:19.743Z,99.59
2023-07-25T01:41:51.148Z,99.53
2023-07-25T01:42:22.669Z,99.42
2023-07-25T01:42:54.184Z,99.26
2023-07-25T01:43:25.649Z,98.90
2023-07-25T01:43:58.362Z,99.18
2023-07-25T01:44:29.906Z,99.11
2023-07-25T01:45:01.287Z,99.22
2023-07-25T01:45:32.863Z,99.08
2023-07-25T01:46:04.418Z,98.48
2023-07-25T01:46:36.074Z,98.98
2023-07-25T01:47:07.553Z,98.44
2023-07-25T01:47:39.061Z,98.20
2023-07-25T01:48:10.557Z,98.70
2023-07-25T01:48:41.966Z,98.73
2023-07-25T01:49:13.929Z,98.35
2023-07-25T01:49:45.360Z,98.31
2023-07-25T01:50:17.884Z,98.55
2023-07-25T01:50:49.368Z,98.43
2023-07-25T01:51:20.884Z,98.26
2023-07-25T01:51:52.466Z,98.29
2023-07-25T01:52:24.072Z,98.45
2023-07-25T01:52:55.764Z,98.15
2023-07-25T01:53:27.209Z,97.72
2023-07-25T01:54:00.014Z,97.82
2023-07-25T01:54:31.470Z,97.44
2023-07-25T01:55:03.515Z,97.37
2023-07-25T01:55:37.602Z,97.78
2023-07-25T01:56:09.040Z,97.72
2023-07-25T01:56:40.525Z,97.70
2023-07-25T01:57:12.045Z,97.24
2023-07-25T01:57:43.549Z,97.43
2023-07-25T01:58:14.980Z,97.68
2023-07-25T01:58:46.498Z,97.53
2023-07-25T01:59:18.586Z,97.70
2023-07-25T01:59:50.803Z,97.82
2023-07-25T02:00:22.376Z,97.88
2023-07-25T02:01:00.576Z,97.53
2023-07-25T02:01:32.296Z,97.51
2023-07-25T02:02:04.129Z,97.77
2023-07-25T02:02:35.680Z,97.88
2023-07-25T02:03:07.266Z,97.82
2023-07-25T02:03:38.711Z,98.27
2023-07-25T02:04:10.142Z,97.93
2023-07-25T02:04:41.593Z,97.73
2023-07-25T02:05:13.026Z,97.72
2023-07-25T02:05:44.576Z,97.91
2023-07-25T02:06:16.097Z,97.76
2023-07-25T02:06:47.558Z,97.69
2023-07-25T02:07:19.016Z,97.79
2023-07-25T02:07:50.459Z,97.64
2023-07-25T02:08:21.897Z,97.88
2023-07-25T02:08:53.313Z,97.63
2023-07-25T02:09:24.805Z,97.36
2023-07-25T02:09:56.267Z,97.35
2023-07-25T02:10:28.722Z,97.23
2023-07-25T02:11:00.324Z,97.49
2023-07-25T02:11:31.841Z,97.74
2023-07-25T02:12:03.816Z,97.26
2023-07-25T02:12:35.256Z,97.74
2023-07-25T02:13:06.725Z,98.06
2023-07-25T02:13:38.271Z,98.20
2023-07-25T02:14:09.680Z,97.80
2023-07-25T02:14:41.143Z,97.99
2023-07-25T02:15:12.648Z,97.69
2023-07-25T02:15:44.198Z,97.81
2023-07-25T02:16:15.855Z,97.82
2023-07-25T02:16:47.396Z,97.80
2023-07-25T02:17:20.659Z,97.84
2023-07-25T02:17:52.969Z,98.02
2023-07-25T02:18:24.546Z,98.12
2023-07-25T02:18:56.068Z,97.72
2023-07-25T02:19:27.591Z,97.58
2023-07-25T02:19:59.070Z,97.63
2023-07-25T02:20:33.673Z,98.02
2023-07-25T02:21:05.176Z,97.72
2023-07-25T02:21:36.593Z,98.04
2023-07-25T02:22:08.452Z,98.30
2023-07-25T02:22:39.930Z,98.10
2023-07-25T02:23:11.450Z,97.59
2023-07-25T02:23:43.000Z,98.30
2023-07-25T02:24:14.535Z,98.59
2023-07-25T02:24:46.045Z,98.42
2023-07-25T02:25:17.765Z,98.82
2023-07-25T02:25:49.215Z,99.17
2023-07-25T02:26:20.852Z,99.25
2023-07-25T02:26:52.255Z,99.28
2023-07-25T02:27:23.736Z,98.95
2023-07-25T02:27:55.433Z,99.86
2023-07-25T02:28:26.977Z,99.62
2023-07-25T02:29:00.811Z,99.99
2023-07-25T02:29:32.282Z,99.56
2023-07-25T02:30:04.007Z,99.90
2023-07-25T02:30:35.567Z,100.00
2023-07-25T02:31:07.154Z,100.00
2023-07-25T02:31:38.782Z,100.00
2023-07-25T02:32:10.233Z,100.00
2023-07-25T02:32:41.742Z,100.00
2023-07-25T02:33:13.903Z,100.00
2023-07-25T02:33:45.354Z,100.00
2023-07-25T02:34:17.287Z,100.00
2023-07-25T02:34:48.809Z,100.00
2023-07-25T02:35:20.476Z,100.00
2023-07-25T02:35:51.885Z,100.00
2023-07-25T02:36:23.329Z,100.00
2023-07-25T02:36:54.760Z,100.00
2023-07-25T02:37:26.211Z,100.00
2023-07-25T02:38:46.785Z,100.00
2023-07-25T02:39:18.202Z,100.00
2023-07-25T02:39:49.596Z,100.00
2023-07-25T02:40:21.109Z,100.00
2023-07-25T02:40:52.589Z,100.00
2023-07-25T02:41:24.027Z,100.00
2023-07-25T02:41:55.442Z,100.00
2023-07-25T02:42:26.852Z,100.00
2023-07-25T02:42:58.504Z,100.00
2023-07-25T02:43:30.165Z,100.00
2023-07-25T02:44:01.933Z,100.00
2023-07-25T02:44:33.329Z,100.00
2023-07-25T02:45:05.168Z,100.00
2023-07-25T02:45:36.712Z,100.00
2023-07-25T02:46:08.172Z,100.00
2023-07-25T02:46:39.597Z,100.00
2023-07-25T02:47:11.107Z,100.00
2023-07-25T02:47:42.808Z,100.00
2023-07-25T02:48:14.315Z,100.00
2023-07-25T02:48:45.764Z,100.00
2023-07-25T02:49:17.402Z,100.00
2023-07-25T02:49:48.828Z,100.00
2023-07-25T02:50:20.285Z,100.00
2023-07-25T02:50:51.772Z,100.00
2023-07-25T02:51:23.286Z,100.00
2023-07-25T02:51:54.748Z,100.00
2023-07-25T02:52:26.246Z,100.00
2023-07-25T02:52:57.691Z,100.00
2023-07-25T02:53:29.244Z,99.96
2023-07-25T02:54:00.698Z,99.78
2023-07-25T02:54:32.148Z,100.00
2023-07-25T02:55:04.576Z,100.00
2023-07-25T02:55:37.872Z,99.78
2023-07-25T02:56:09.262Z,99.74
2023-07-25T02:56:40.682Z,100.00
2023-07-25T02:57:12.370Z,99.88
2023-07-25T02:57:43.783Z,99.57
2023-07-25T02:58:15.230Z,99.63
2023-07-25T02:58:46.699Z,99.12
2023-07-25T02:59:20.241Z,98.97
2023-07-25T02:59:51.928Z,98.90
2023-07-25T03:00:23.764Z,99.21
2023-07-25T03:00:55.341Z,99.46
2023-07-25T03:01:26.920Z,99.61
2023-07-25T03:01:58.665Z,99.63
2023-07-25T03:02:30.179Z,100.00
2023-07-25T03:03:01.822Z,99.76
2023-07-25T03:03:33.302Z,100.00
2023-07-25T03:04:04.934Z,100.00
2023-07-25T03:04:36.431Z,100.00
2023-07-25T03:05:09.292Z,100.00
2023-07-25T03:05:40.813Z,100.00
2023-07-25T03:06:12.482Z,99.93
2023-07-25T03:06:43.937Z,99.98
2023-07-25T03:07:15.371Z,99.75
2023-07-25T03:07:46.867Z,100.00
2023-07-25T03:08:18.454Z,100.00
2023-07-25T03:08:49.947Z,100.00
2023-07-25T03:09:21.345Z,100.00
2023-07-25T03:09:52.712Z,99.66
2023-07-25T03:10:24.329Z,100.00
2023-07-25T03:10:55.759Z,99.92
2023-07-25T03:11:27.203Z,100.00
2023-07-25T03:12:01.654Z,100.00
2023-07-25T03:12:33.145Z,100.00
2023-07-25T03:13:04.701Z,100.00
2023-07-25T03:13:36.165Z,100.00
2023-07-25T03:14:07.630Z,100.00
2023-07-25T03:14:39.024Z,100.00
2023-07-25T03:15:10.730Z,100.00
2023-07-25T03:15:42.424Z,100.00
2023-07-25T03:16:13.980Z,100.00
2023-07-25T03:16:45.526Z,100.00
2023-07-25T03:17:16.984Z,100.00
2023-07-25T03:17:48.954Z,100.00
2023-07-25T03:18:20.538Z,100.00
2023-07-25T03:18:52.084Z,100.00
2023-07-25T03:19:23.671Z,100.00
2023-07-25T03:19:55.378Z,100.00
2023-07-25T03:20:26.906Z,100.00
2023-07-25T03:21:01.306Z,100.00
2023-07-25T03:21:33.257Z,100.00
2023-07-25T03:22:05.181Z,100.00
2023-07-25T03:22:36.628Z,100.00
2023-07-25T03:23:08.120Z,100.00
2023-07-25T03:23:39.918Z,100.00
2023-07-25T03:24:11.361Z,100.00
2023-07-25T03:24:42.926Z,100.00
2023-07-25T03:25:14.330Z,100.00
2023-07-25T03:25:45.738Z,100.00
2023-07-25T03:26:17.716Z,100.00
2023-07-25T03:26:49.365Z,100.00
2023-07-25T03:27:20.966Z,100.00
2023-07-25T03:27:52.831Z,100.00
2023-07-25T03:28:24.391Z,100.00
2023-07-25T03:28:55.837Z,100.00
2023-07-25T03:29:27.402Z,100.00
2023-07-25T03:29:58.891Z,100.00
2023-07-25T03:30:30.448Z,100.00
2023-07-25T03:31:02.082Z,100.00
2023-07-25T03:31:33.780Z,100.00
2023-07-25T03:32:05.783Z,100.00
2023-07-25T03:32:37.323Z,100.00
2023-07-25T03:33:09.028Z,100.00
2023-07-25T03:33:40.541Z,100.00
2023-07-25T03:34:12.055Z,100.00
2023-07-25T03:34:43.865Z,100.00
2023-07-25T03:35:15.294Z,100.00
2023-07-25T03:35:46.869Z,100.00
2023-07-25T03:36:18.379Z,100.00
2023-07-25T03:36:49.843Z,100.00
2023-07-25T03:37:21.350Z,100.00
2023-07-25T03:37:52.778Z,100.00
2023-07-25T03:38:24.252Z,100.00
2023-07-25T03:38:55.679Z,100.00
2023-07-25T03:39:27.232Z,100.00
2023-07-25T03:40:01.604Z,100.00
2023-07-25T03:40:33.005Z,100.00
2023-07-25T03:41:04.716Z,100.00
2023-07-25T03:41:36.372Z,100.00
2023-07-25T03:42:07.805Z,100.00
2023-07-25T03:42:39.286Z,100.00
2023-07-25T03:43:10.727Z,100.00
2023-07-25T03:43:42.209Z,100.00
2023-07-25T03:44:18.761Z,100.00
2023-07-25T03:44:52.309Z,100.00
2023-07-25T03:45:23.970Z,100.00
2023-07-25T03:45:55.512Z,100.00
2023-07-25T03:46:27.049Z,100.00
2023-07-25T03:46:58.827Z,100.00
2023-07-25T03:47:30.340Z,100.00
2023-07-25T03:48:01.847Z,100.00
2023-07-25T03:48:33.412Z,100.00
2023-07-25T03:49:04.804Z,100.00
2023-07-25T03:49:36.225Z,100.00
2023-07-25T03:50:08.106Z,100.00
2023-07-25T03:50:39.556Z,100.00
2023-07-25T03:51:14.903Z,100.00
2023-07-25T03:51:46.402Z,100.00
2023-07-25T03:52:17.869Z,100.00
2023-07-25T03:52:49.543Z,100.00
2023-07-25T03:53:21.018Z,100.00
2023-07-25T03:53:52.541Z,100.00
2023-07-25T03:54:25.144Z,100.00
2023-07-25T03:54:56.631Z,100.00
2023-07-25T03:55:28.462Z,100.00
2023-07-25T03:56:00.089Z,100.00
2023-07-25T03:56:31.626Z,100.00
2023-07-25T03:57:03.359Z,100.00
2023-07-25T03:57:34.799Z,100.00
2023-07-25T03:58:06.509Z,100.00
2023-07-25T03:58:38.025Z,100.00
2023-07-25T03:59:09.613Z,100.00
2023-07-25T03:59:41.026Z,100.00
2023-07-25T04:00:13.318Z,100.00
2023-07-25T04:00:44.972Z,100.00
2023-07-25T04:01:16.509Z,100.00
2023-07-25T04:01:48.151Z,100.00
2023-07-25T04:02:20.695Z,100.00
2023-07-25T04:03:04.986Z,100.00
2023-07-25T04:03:41.246Z,100.00
2023-07-25T04:04:13.043Z,100.00
2023-07-25T04:04:44.562Z,100.00
2023-07-25T04:05:16.405Z,100.00
2023-07-25T04:05:47.843Z,100.00
2023-07-25T04:06:19.920Z,100.00
2023-07-25T04:06:51.440Z,100.00
2023-07-25T04:07:22.895Z,100.00
2023-07-25T04:07:54.321Z,100.00
2023-07-25T04:08:25.840Z,100.00
2023-07-25T04:08:58.541Z,100.00
2023-07-25T04:09:29.993Z,100.00
2023-07-25T04:10:01.878Z,100.00
2023-07-25T04:10:33.345Z,100.00
2023-07-25T04:11:05.051Z,100.00
2023-07-25T04:11:36.533Z,100.00
2023-07-25T04:12:08.395Z,100.00
2023-07-25T04:12:39.849Z,100.00
2023-07-25T04:13:11.354Z,100.00
2023-07-25T04:13:42.798Z,100.00
2023-07-25T04:14:14.274Z,100.00
2023-07-25T04:14:45.698Z,100.00
2023-07-25T04:15:17.223Z,100.00
2023-07-25T04:15:48.754Z,100.00
2023-07-25T04:16:20.224Z,100.00
2023-07-25T04:16:51.894Z,100.00
2023-07-25T04:17:23.402Z,100.00
2023-07-25T04:17:54.950Z,100.00
2023-07-25T04:18:26.457Z,100.00
2023-07-25T04:18:57.970Z,100.00
2023-07-25T04:19:29.405Z,100.00
2023-07-25T04:20:00.901Z,100.00
2023-07-25T04:20:32.447Z,100.00
2023-07-25T04:21:04.028Z,100.00
2023-07-25T04:21:35.489Z,100.00
2023-07-25T04:22:06.959Z,100.00
2023-07-25T04:22:39.260Z,100.00
2023-07-25T04:23:11.395Z,100.00
2023-07-25T04:23:43.879Z,100.00
2023-07-25T04:24:15.423Z,100.00
2023-07-25T04:24:46.892Z,100.00
2023-07-25T04:25:18.321Z,100.00
2023-07-25T04:25:50.735Z,100.00
2023-07-25T04:26:22.146Z,100.00
2023-07-25T04:26:53.638Z,100.00
2023-07-25T04:27:25.156Z,100.00
2023-07-25T04:27:56.673Z,100.00
2023-07-25T04:28:29.893Z,100.00
2023-07-25T04:29:03.776Z,100.00
2023-07-25T04:29:35.187Z,100.00
2023-07-25T04:30:07.213Z,100.00
2023-07-25T04:30:38.750Z,100.00
2023-07-25T04:31:10.322Z,100.00
2023-07-25T04:31:41.792Z,100.00
2023-07-25T04:32:13.327Z,100.00
2023-07-25T04:32:44.769Z,100.00
2023-07-25T04:33:16.254Z,100.00
2023-07-25T04:33:47.799Z,100.00
2023-07-25T04:34:19.363Z,100.00
2023-07-25T04:34:51.086Z,100.00
2023-07-25T04:35:22.606Z,100.00
2023-07-25T04:35:54.117Z,100.00
2023-07-25T04:36:29.883Z,100.00
2023-07-25T04:37:01.608Z,100.00
2023-07-25T04:37:33.083Z,100.00
2023-07-25T04:38:04.551Z,100.00
2023-07-25T04:38:36.014Z,100.00
2023-07-25T04:39:07.549Z,100.00
2023-07-25T04:39:39.029Z,100.00
2023-07-25T04:40:11.068Z,100.00
2023-07-25T04:40:45.531Z,100.00
2023-07-25T04:41:17.044Z,100.00
2023-07-25T04:41:48.446Z,100.00
2023-07-25T04:42:19.861Z,100.00
2023-07-25T04:42:51.469Z,100.00
2023-07-25T04:43:22.914Z,100.00
2023-07-25T04:43:54.381Z,100.00
2023-07-25T04:44:25.878Z,100.00
2023-07-25T04:44:59.886Z,100.00
2023-07-25T04:45:31.321Z,100.00
2023-07-25T04:46:02.789Z,100.00
2023-07-25T04:46:34.264Z,100.00
2023-07-25T04:47:05.777Z,100.00
2023-07-25T04:47:37.342Z,100.00
2023-07-25T04:48:08.911Z,100.00
2023-07-25T04:48:40.437Z,100.00
2023-07-25T04:49:14.785Z,100.00
2023-07-25T04:49:46.251Z,100.00
2023-07-25T04:50:17.792Z,100.00
2023-07-25T04:50:49.238Z,100.00
2023-07-25T04:51:20.764Z,100.00
2023-07-25T04:51:52.272Z,100.00
2023-07-25T04:52:23.790Z,100.00
2023-07-25T04:52:55.316Z,100.00
2023-07-25T04:53:26.987Z,100.00
2023-07-25T04:53:58.596Z,100.00
2023-07-25T04:54:30.092Z,100.00
2023-07-25T04:55:01.496Z,100.00
2023-07-25T04:55:32.913Z,100.00
2023-07-25T04:56:04.521Z,100.00
2023-07-25T04:56:36.223Z,100.00
2023-07-25T04:57:07.714Z,100.00
2023-07-25T04:57:39.292Z,100.00
2023-07-25T04:58:11.034Z,100.00
2023-07-25T04:58:42.537Z,100.00
2023-07-25T04:59:13.994Z,100.00
2023-07-25T04:59:45.417Z,100.00
2023-07-25T05:00:17.207Z,100.00
2023-07-25T05:00:48.727Z,100.00
2023-07-25T05:01:20.233Z,100.00
2023-07-25T05:01:51.793Z,100.00
2023-07-25T05:02:23.645Z,100.00
2023-07-25T05:02:55.145Z,100.00
2023-07-25T05:03:27.312Z,100.00
2023-07-25T05:03:58.952Z,100.00
2023-07-25T05:04:30.397Z,100.00
2023-07-25T05:05:01.958Z,100.00
2023-07-25T05:05:33.421Z,100.00
2023-07-25T05:06:05.014Z,100.00
2023-07-25T05:06:36.477Z,100.00
2023-07-25T05:07:08.676Z,100.00
2023-07-25T05:07:40.042Z,100.00
2023-07-25T05:08:11.494Z,100.00
2023-07-25T05:08:42.864Z,100.00
2023-07-25T05:09:14.307Z,100.00
2023-07-25T05:09:45.971Z,100.00
2023-07-25T05:10:17.470Z,100.00
2023-07-25T05:10:51.503Z,100.00
2023-07-25T05:11:22.915Z,100.00
2023-07-25T05:11:54.454Z,100.00
2023-07-25T05:12:25.944Z,100.00
2023-07-25T05:12:57.709Z,100.00
2023-07-25T05:13:29.247Z,100.00
2023-07-25T05:14:01.218Z,100.00
2023-07-25T05:14:32.673Z,100.00
2023-07-25T05:15:05.125Z,100.00
2023-07-25T05:15:38.516Z,100.00
2023-07-25T05:16:10.030Z,100.00
2023-07-25T05:16:41.476Z,100.00
2023-07-25T05:17:12.934Z,100.00
2023-07-25T05:17:44.661Z,100.00
2023-07-25T05:18:16.111Z,100.00
2023-07-25T05:18:47.610Z,100.00
2023-07-25T05:19:19.047Z,100.00
2023-07-25T05:19:51.057Z,100.00
2023-07-25T05:20:22.589Z,100.00
2023-07-25T05:20:54.074Z,100.00
2023-07-25T05:21:25.526Z,100.00
2023-07-25T05:21:59.299Z,100.00
2023-07-25T05:22:30.742Z,100.00
2023-07-25T05:23:02.503Z,100.00
2023-07-25T05:23:33.996Z,100.00
2023-07-25T05:24:05.722Z,100.00
2023-07-25T05:24:37.377Z,100.00
2023-07-25T05:25:09.387Z,100.00
2023-07-25T05:25:40.960Z,100.00
2023-07-25T05:26:12.343Z,100.00
2023-07-25T05:26:43.765Z,100.00
2023-07-25T05:27:16.302Z,100.00
2023-07-25T05:27:47.799Z,100.00
2023-07-25T05:28:20.024Z,100.00
2023-07-25T05:28:51.512Z,100.00
2023-07-25T05:29:22.953Z,100.00
2023-07-25T05:29:54.474Z,100.00
2023-07-25T05:30:26.007Z,100.00
2023-07-25T05:30:57.729Z,100.00
2023-07-25T05:31:29.476Z,100.00
2023-07-25T05:32:01.262Z,100.00
2023-07-25T05:32:34.217Z,100.00
2023-07-25T05:33:08.066Z,100.00
2023-07-25T05:33:39.470Z,100.00
2023-07-25T05:34:11.159Z,100.00
2023-07-25T05:34:42.641Z,100.00
2023-07-25T05:35:14.121Z,100.00
2023-07-25T05:35:45.511Z,100.00
2023-07-25T05:36:16.923Z,100.00
2023-07-25T05:36:48.413Z,100.00
2023-07-25T05:37:20.102Z,100.00
2023-07-25T05:37:51.597Z,100.00
2023-07-25T05:38:23.161Z,100.00
2023-07-25T05:38:54.571Z,100.00
2023-07-25T05:39:25.961Z,100.00
2023-07-25T05:39:59.817Z,100.00
2023-07-25T05:40:31.229Z,100.00
2023-07-25T05:41:03.587Z,100.00
2023-07-25T05:41:35.058Z,100.00
2023-07-25T05:42:06.897Z,100.00
2023-07-25T05:42:38.306Z,100.00
2023-07-25T05:43:12.030Z,100.00
2023-07-25T05:43:43.501Z,100.00
2023-07-25T05:44:14.981Z,100.00
2023-07-25T05:44:46.580Z,100.00
2023-07-25T05:45:18.044Z,100.00
2023-07-25T05:45:49.557Z,100.00
2023-07-25T05:46:21.023Z,100.00
2023-07-25T05:46:52.510Z,100.00
2023-07-25T05:47:23.997Z,100.00
2023-07-25T05:47:55.516Z,100.00
2023-07-25T05:48:27.202Z,100.00
2023-07-25T05:48:58.706Z,100.00
2023-07-25T05:49:30.225Z,100.00
2023-07-25T05:50:02.017Z,100.00
2023-07-25T05:50:33.479Z,100.00
2023-07-25T05:51:05.012Z,100.00
2023-07-25T05:51:36.390Z,100.00
2023-07-25T05:52:08.103Z,100.00
2023-07-25T05:52:39.564Z,100.00
2023-07-25T05:53:11.051Z,100.00
2023-07-25T05:53:42.583Z,100.00
2023-07-25T05:54:16.647Z,100.00
2023-07-25T05:54:50.055Z,100.00
2023-07-25T05:55:21.523Z,100.00
2023-07-25T05:55:52.994Z,100.00
2023-07-25T05:56:24.440Z,100.00
2023-07-25T05:56:56.050Z,100.00
2023-07-25T05:57:27.537Z,100.00
2023-07-25T05:57:58.977Z,100.00
2023-07-25T05:58:30.897Z,100.00
2023-07-25T05:59:02.374Z,100.00
2023-07-25T05:59:33.806Z,100.00
2023-07-25T06:00:08.233Z,100.00
2023-07-25T06:00:39.932Z,100.00
2023-07-25T06:01:11.433Z,100.00
2023-07-25T06:01:42.994Z,100.00
2023-07-25T06:02:14.546Z,100.00
2023-07-25T06:02:46.126Z,100.00
2023-07-25T06:03:18.171Z,100.00
2023-07-25T06:03:49.941Z,100.00
2023-07-25T06:04:21.394Z,100.00
2023-07-25T06:04:52.801Z,100.00
2023-07-25T06:05:24.212Z,100.00
2023-07-25T06:05:55.718Z,100.00
2023-07-25T06:06:27.444Z,100.00
2023-07-25T06:06:58.861Z,100.00
2023-07-25T06:07:30.329Z,100.00
2023-07-25T06:08:01.749Z,100.00
2023-07-25T06:08:33.202Z,100.00
2023-07-25T06:09:04.974Z,100.00
2023-07-25T06:09:36.400Z,100.00
2023-07-25T06:10:08.429Z,100.00
2023-07-25T06:10:40.340Z,100.00
2023-07-25T06:11:11.864Z,100.00
2023-07-25T06:11:43.494Z,100.00
2023-07-25T06:12:15.187Z,100.00
2023-07-25T06:12:46.617Z,100.00
2023-07-25T06:13:18.062Z,100.00
2023-07-25T06:13:50.726Z,100.00
2023-07-25T06:14:22.720Z,100.00
2023-07-25T06:14:54.230Z,100.00
2023-07-25T06:15:25.892Z,100.00
2023-07-25T06:15:57.403Z,100.00
2023-07-25T06:16:28.905Z,100.00
2023-07-25T06:17:00.393Z,100.00
2023-07-25T06:17:31.897Z,100.00
2023-07-25T06:18:04.983Z,100.00
2023-07-25T06:18:36.520Z,100.00
2023-07-25T06:19:07.953Z,100.00
2023-07-25T06:19:39.390Z,100.00
2023-07-25T06:20:12.146Z,100.00
2023-07-25T06:20:43.588Z,100.00
2023-07-25T06:21:14.995Z,100.00
2023-07-25T06:21:46.430Z,100.00
2023-07-25T06:22:17.917Z,100.00
2023-07-25T06:22:49.374Z,100.00
2023-07-25T06:23:21.866Z,100.00
2023-07-25T06:23:53.337Z,100.00
2023-07-25T06:24:24.953Z,100.00
2023-07-25T06:24:56.587Z,100.00
2023-07-25T06:25:28.460Z,100.00
2023-07-25T06:26:00.015Z,100.00
2023-07-25T06:26:31.548Z,100.00
2023-07-25T06:27:03.178Z,100.00
2023-07-25T06:27:35.087Z,100.00
2023-07-25T06:28:07.146Z,100.00
2023-07-25T06:28:38.594Z,100.00
2023-07-25T06:29:09.975Z,100.00
2023-07-25T06:29:41.506Z,100.00
2023-07-25T06:30:13.093Z,100.00
2023-07-25T06:30:44.718Z,100.00
2023-07-25T06:31:16.307Z,100.00
2023-07-25T06:31:47.990Z,100.00
2023-07-25T06:32:19.502Z,100.00
2023-07-25T06:32:53.694Z,100.00
2023-07-25T06:33:26.558Z,100.00
2023-07-25T06:33:59.571Z,100.00
2023-07-25T06:34:31.014Z,100.00
2023-07-25T06:35:02.416Z,100.00
2023-07-25T06:35:33.909Z,100.00
2023-07-25T06:36:05.490Z,100.00
2023-07-25T06:36:36.996Z,98.60
2023-07-25T06:37:08.720Z,98.28
2023-07-25T06:37:40.311Z,98.37
2023-07-25T06:38:11.765Z,98.98
2023-07-25T06:38:43.202Z,98.36
2023-07-25T06:39:15.083Z,98.01
2023-07-25T06:39:46.483Z,96.84
2023-07-25T06:40:18.029Z,95.30
2023-07-25T06:40:49.572Z,94.83
2023-07-25T06:41:21.019Z,94.78
2023-07-25T06:41:52.432Z,93.84
2023-07-25T06:42:23.936Z,93.31
2023-07-25T06:42:55.428Z,93.83
2023-07-25T06:43:26.979Z,94.02
2023-07-25T06:44:01.239Z,94.20